createdAt,value
2022-12-01T00:00:27.560Z,102620.50
2022-12-01T00:00:59.650Z,102614.53
2022-12-01T00:01:31.443Z,102615.50
2022-12-01T00:02:03.007Z,102620.78
2022-12-01T00:02:34.672Z,102622.47
2022-12-01T00:03:06.553Z,102619.69
2022-12-01T00:03:38.164Z,102620.78
2022-12-01T00:04:10.114Z,102618.16
2022-12-01T00:04:41.766Z,102616.34
2022-12-01T00:05:13.269Z,102612.59
2022-12-01T00:05:44.733Z,102614.41
2022-12-01T00:06:18.522Z,102611.63
2022-12-01T00:06:50.025Z,102616.06
2022-12-01T00:07:21.495Z,102620.50
2022-12-01T00:07:53.019Z,102618.00
2022-12-01T00:08:24.493Z,102616.06
2022-12-01T00:09:19.514Z,102614.25
2022-12-01T00:10:10.633Z,102619.94
2022-12-01T00:10:42.109Z,102617.19
2022-12-01T00:11:13.570Z,102614.41
2022-12-01T00:11:45.311Z,102609.94
2022-12-01T00:12:16.744Z,102611.63
2022-12-01T00:12:48.219Z,102608.88
2022-12-01T00:13:19.718Z,102616.66
2022-12-01T00:13:51.182Z,102614.84
2022-12-01T00:14:22.801Z,102628.88
2022-12-01T00:15:01.053Z,102625.28
2022-12-01T00:15:36.132Z,102619.72
2022-12-01T00:16:16.935Z,102626.25
2022-12-01T00:16:48.644Z,102618.06
2022-12-01T00:17:21.340Z,102616.38
2022-12-01T00:17:52.890Z,102607.75
2022-12-01T00:18:24.452Z,102613.03
2022-12-01T00:18:56.214Z,102612.22
2022-12-01T00:19:27.956Z,102620.97
2022-12-01T00:19:59.394Z,102613.88
2022-12-01T00:20:33.209Z,102612.22
2022-12-01T00:21:04.981Z,102626.53
2022-12-01T00:21:36.507Z,102613.19
2022-12-01T00:22:07.956Z,102609.44
2022-12-01T00:22:43.146Z,102605.81
2022-12-01T00:23:14.574Z,102617.63
2022-12-01T00:23:49.936Z,102608.59
2022-12-01T00:24:23.415Z,102607.75
2022-12-01T00:24:54.848Z,102608.59
2022-12-01T00:25:26.717Z,102609.56
2022-12-01T00:26:06.976Z,102613.03
2022-12-01T00:26:38.887Z,102617.63
2022-12-01T00:27:10.370Z,102610.53
2022-12-01T00:27:42.555Z,102610.69
2022-12-01T00:28:14.005Z,102608.75
2022-12-01T00:28:51.839Z,102615.00
2022-12-01T00:29:23.526Z,102618.72
2022-12-01T00:29:55.010Z,102619.53
2022-12-01T00:30:26.509Z,102614.53
2022-12-01T00:30:58.081Z,102618.00
2022-12-01T00:31:29.593Z,102615.22
2022-12-01T00:32:01.246Z,102615.50
2022-12-01T00:32:32.957Z,102620.78
2022-12-01T00:33:04.403Z,102614.53
2022-12-01T00:33:36.084Z,102611.91
2022-12-01T00:34:11.488Z,102617.88
2022-12-01T00:34:43.144Z,102618.84
2022-12-01T00:35:15.649Z,102617.78
2022-12-01T00:35:47.342Z,102609.72
2022-12-01T00:36:19.633Z,102613.31
2022-12-01T00:36:51.660Z,102607.31
2022-12-01T00:37:23.140Z,102612.59
2022-12-01T00:37:54.624Z,102614.66
2022-12-01T00:38:26.563Z,102616.47
2022-12-01T00:38:58.049Z,102608.84
2022-12-01T00:39:29.653Z,102614.53
2022-12-01T00:40:01.666Z,102617.19
2022-12-01T00:40:33.152Z,102609.38
2022-12-01T00:41:05.167Z,102609.53
2022-12-01T00:41:36.661Z,102611.34
2022-12-01T00:42:13.130Z,102613.97
2022-12-01T00:42:44.977Z,102613.84
2022-12-01T00:43:16.456Z,102610.38
2022-12-01T00:43:48.227Z,102610.50
2022-12-01T00:44:19.836Z,102608.56
2022-12-01T00:44:51.351Z,102612.16
2022-12-01T00:45:22.792Z,102610.22
2022-12-01T00:45:56.344Z,102607.59
2022-12-01T00:46:28.010Z,102615.38
2022-12-01T00:46:59.605Z,102606.63
2022-12-01T00:47:31.102Z,102612.88
2022-12-01T00:48:02.569Z,102610.22
2022-12-01T00:48:34.013Z,102613.56
2022-12-01T00:49:06.143Z,102619.94
2022-12-01T00:49:37.610Z,102609.25
2022-12-01T00:50:09.502Z,102615.38
2022-12-01T00:50:41.256Z,102624.13
2022-12-01T00:51:12.731Z,102617.03
2022-12-01T00:51:44.268Z,102621.47
2022-12-01T00:52:17.312Z,102614.66
2022-12-01T00:52:48.808Z,102620.78
2022-12-01T00:53:20.829Z,102613.56
2022-12-01T00:53:52.267Z,102618.84
2022-12-01T00:54:24.050Z,102614.16
2022-12-01T00:54:55.481Z,102612.72
2022-12-01T00:55:27.006Z,102622.19
2022-12-01T00:55:58.585Z,102620.28
2022-12-01T00:56:30.101Z,102615.00
2022-12-01T00:57:01.587Z,102620.28
2022-12-01T00:57:33.042Z,102621.25
2022-12-01T00:58:04.519Z,102629.16
2022-12-01T00:58:36.114Z,102621.94
2022-12-01T00:59:07.586Z,102614.03
2022-12-01T00:59:39.046Z,102627.22
2022-12-01T01:00:11.710Z,102626.53
2022-12-01T01:00:47.499Z,102624.44
2022-12-01T01:01:19.602Z,102624.31
2022-12-01T01:01:51.364Z,102630.56
2022-12-01T01:02:22.985Z,102630.28
2022-12-01T01:02:54.744Z,102622.50
2022-12-01T01:03:27.324Z,102621.34
2022-12-01T01:03:58.817Z,102624.81
2022-12-01T01:04:31.338Z,102623.88
2022-12-01T01:05:02.781Z,102624.59
2022-12-01T01:05:41.425Z,102625.56
2022-12-01T01:06:13.018Z,102625.78
2022-12-01T01:06:44.640Z,102625.78
2022-12-01T01:07:16.201Z,102629.16
2022-12-01T01:07:47.754Z,102626.53
2022-12-01T01:08:19.422Z,102628.88
2022-12-01T01:08:50.943Z,102621.94
2022-12-01T01:09:22.532Z,102608.88
2022-12-01T01:09:54.057Z,102622.91
2022-12-01T01:10:25.529Z,102615.97
2022-12-01T01:10:59.887Z,102619.53
2022-12-01T01:11:31.377Z,102624.00
2022-12-01T01:12:03.089Z,102618.59
2022-12-01T01:12:34.560Z,102628.88
2022-12-01T01:13:06.410Z,102623.75
2022-12-01T01:13:38.464Z,102624.59
2022-12-01T01:14:09.964Z,102624.59
2022-12-01T01:14:41.442Z,102625.56
2022-12-01T01:15:13.001Z,102625.41
2022-12-01T01:15:44.584Z,102626.53
2022-12-01T01:16:18.998Z,102629.16
2022-12-01T01:16:50.591Z,102623.88
2022-12-01T01:17:22.157Z,102630.09
2022-12-01T01:17:53.736Z,102628.34
2022-12-01T01:18:25.957Z,102629.16
2022-12-01T01:18:58.303Z,102629.16
2022-12-01T01:19:29.752Z,102627.22
2022-12-01T01:20:01.309Z,102630.84
2022-12-01T01:20:33.524Z,102624.72
2022-12-01T01:21:07.873Z,102633.63
2022-12-01T01:21:39.613Z,102630.09
2022-12-01T01:22:11.324Z,102623.44
2022-12-01T01:22:42.770Z,102633.28
2022-12-01T01:23:14.222Z,102637.47
2022-12-01T01:23:45.680Z,102629.41
2022-12-01T01:24:17.505Z,102630.25
2022-12-01T01:24:48.973Z,102632.75
2022-12-01T01:25:20.524Z,102639.00
2022-12-01T01:25:52.128Z,102631.91
2022-12-01T01:26:29.304Z,102638.31
2022-12-01T01:27:00.959Z,102631.06
2022-12-01T01:27:34.486Z,102638.44
2022-12-01T01:28:06.040Z,102628.56
2022-12-01T01:28:37.574Z,102637.47
2022-12-01T01:29:09.031Z,102635.66
2022-12-01T01:29:40.513Z,102638.31
2022-12-01T01:30:12.412Z,102635.66
2022-12-01T01:30:44.571Z,102635.66
2022-12-01T01:31:19.293Z,102633.03
2022-12-01T01:31:50.813Z,102636.50
2022-12-01T01:32:22.287Z,102635.78
2022-12-01T01:32:53.851Z,102640.38
2022-12-01T01:33:25.436Z,102637.59
2022-12-01T01:33:57.568Z,102635.22
2022-12-01T01:34:29.113Z,102630.22
2022-12-01T01:35:00.745Z,102632.16
2022-12-01T01:35:32.316Z,102639.13
2022-12-01T01:36:04.695Z,102640.78
2022-12-01T01:36:36.171Z,102635.78
2022-12-01T01:37:07.628Z,102633.28
2022-12-01T01:37:39.080Z,102632.31
2022-12-01T01:38:11.445Z,102642.72
2022-12-01T01:38:43.386Z,102640.34
2022-12-01T01:39:14.846Z,102640.22
2022-12-01T01:39:46.797Z,102644.66
2022-12-01T01:40:18.728Z,102638.56
2022-12-01T01:40:50.203Z,102643.97
2022-12-01T01:41:22.457Z,102643.97
2022-12-01T01:41:53.915Z,102642.44
2022-12-01T01:42:25.395Z,102644.38
2022-12-01T01:42:56.834Z,102646.19
2022-12-01T01:43:47.701Z,102644.38
2022-12-01T01:44:54.173Z,102647.44
2022-12-01T01:45:29.272Z,102645.63
2022-12-01T01:46:00.868Z,102646.59
2022-12-01T01:46:34.365Z,102640.34
2022-12-01T01:47:06.106Z,102642.03
2022-12-01T01:47:39.304Z,102645.38
2022-12-01T01:48:13.516Z,102639.13
2022-12-01T01:49:10.003Z,102642.59
2022-12-01T01:49:42.214Z,102644.41
2022-12-01T01:50:15.913Z,102646.91
2022-12-01T01:50:47.370Z,102636.34
2022-12-01T01:51:23.978Z,102640.78
2022-12-01T01:51:57.634Z,102648.56
2022-12-01T01:52:29.113Z,102643.84
2022-12-01T01:53:10.597Z,102647.47
2022-12-01T01:53:43.206Z,102638.00
2022-12-01T01:54:22.552Z,102642.19
2022-12-01T01:54:54.956Z,102646.50
2022-12-01T01:55:27.380Z,102647.47
2022-12-01T01:55:59.405Z,102649.97
2022-12-01T01:56:30.945Z,102644.81
2022-12-01T01:57:03.833Z,102640.91
2022-12-01T01:57:35.827Z,102645.78
2022-12-01T01:58:09.448Z,102643.16
2022-12-01T01:58:41.178Z,102637.75
2022-12-01T01:59:15.536Z,102639.81
2022-12-01T01:59:50.644Z,102640.91
2022-12-01T02:00:22.701Z,102637.44
2022-12-01T02:00:54.177Z,102639.13
2022-12-01T02:01:25.844Z,102637.19
2022-12-01T02:02:06.577Z,102635.50
2022-12-01T02:02:40.804Z,102632.72
2022-12-01T02:03:16.035Z,102638.72
2022-12-01T02:03:48.065Z,102631.91
2022-12-01T02:04:20.431Z,102628.56
2022-12-01T02:04:57.294Z,102630.50
2022-12-01T02:05:31.235Z,102636.03
2022-12-01T02:06:05.209Z,102631.47
2022-12-01T02:06:36.810Z,102630.50
2022-12-01T02:07:08.996Z,102627.72
2022-12-01T02:07:41.343Z,102633.00
2022-12-01T02:08:12.955Z,102631.47
2022-12-01T02:08:44.429Z,102634.09
2022-12-01T02:09:16.115Z,102628.00
2022-12-01T02:09:48.022Z,102637.59
2022-12-01T02:10:24.048Z,102635.78
2022-12-01T02:11:20.369Z,102629.38
2022-12-01T02:12:17.989Z,102632.72
2022-12-01T02:12:58.821Z,102633.84
2022-12-01T02:13:54.116Z,102641.63
2022-12-01T02:14:47.385Z,102634.09
2022-12-01T02:15:58.130Z,102634.38
2022-12-01T02:16:45.291Z,102638.69
2022-12-01T02:17:31.694Z,102634.50
2022-12-01T02:18:35.334Z,102634.66
2022-12-01T02:19:28.370Z,102637.28
2022-12-01T02:20:24.507Z,102632.16
2022-12-01T02:21:13.225Z,102635.50
2022-12-01T02:22:09.207Z,102635.34
2022-12-01T02:22:54.457Z,102632.72
2022-12-01T02:23:56.628Z,102633.69
2022-12-01T02:24:42.509Z,102624.09
2022-12-01T02:25:27.061Z,102634.78
2022-12-01T02:26:24.337Z,102633.94
2022-12-01T02:27:25.024Z,102630.34
2022-12-01T02:28:15.654Z,102633.81
2022-12-01T02:29:01.221Z,102624.94
2022-12-01T02:30:11.354Z,102630.22
2022-12-01T02:30:58.787Z,102630.06
2022-12-01T02:31:55.335Z,102629.38
2022-12-01T02:32:33.387Z,102625.75
2022-12-01T02:33:14.349Z,102632.97
2022-12-01T02:33:53.786Z,102633.13
2022-12-01T02:34:40.030Z,102632.72
2022-12-01T02:35:23.485Z,102634.66
2022-12-01T02:36:01.371Z,102631.31
2022-12-01T02:36:37.023Z,102635.75
2022-12-01T02:37:15.860Z,102638.25
2022-12-01T02:38:23.136Z,102634.09
2022-12-01T02:38:59.454Z,102635.75
2022-12-01T02:40:06.149Z,102636.59
2022-12-01T02:40:47.470Z,102639.94
2022-12-01T02:41:25.480Z,102634.66
2022-12-01T02:42:31.755Z,102636.03
2022-12-01T02:43:03.580Z,102625.50
2022-12-01T02:43:51.734Z,102632.44
2022-12-01T02:44:32.531Z,102625.50
2022-12-01T02:45:06.296Z,102626.47
2022-12-01T02:45:46.208Z,102628.25
2022-12-01T02:46:28.011Z,102634.94
2022-12-01T02:47:11.761Z,102628.00
2022-12-01T02:47:44.824Z,102628.00
2022-12-01T02:48:22.649Z,102632.56
2022-12-01T02:48:55.215Z,102632.56
2022-12-01T02:49:30.863Z,102635.34
2022-12-01T02:50:03.875Z,102638.81
2022-12-01T02:50:36.686Z,102635.22
2022-12-01T02:51:12.841Z,102639.53
2022-12-01T02:51:45.350Z,102629.09
2022-12-01T02:52:17.749Z,102640.22
2022-12-01T02:52:49.279Z,102637.72
2022-12-01T02:53:20.939Z,102643.97
2022-12-01T02:53:52.906Z,102632.44
2022-12-01T02:54:25.656Z,102634.50
2022-12-01T02:54:57.218Z,102638.97
2022-12-01T02:55:28.718Z,102633.53
2022-12-01T02:56:00.183Z,102635.22
2022-12-01T02:56:32.021Z,102638.97
2022-12-01T02:57:03.574Z,102633.53
2022-12-01T02:57:35.049Z,102637.84
2022-12-01T02:58:14.100Z,102637.72
2022-12-01T02:58:45.797Z,102637.72
2022-12-01T02:59:17.243Z,102634.09
2022-12-01T02:59:52.168Z,102635.06
2022-12-01T03:00:23.640Z,102637.72
2022-12-01T03:01:34.265Z,102638.56
2022-12-01T03:02:24.635Z,102645.38
2022-12-01T03:03:11.574Z,102642.72
2022-12-01T03:04:13.947Z,102639.13
2022-12-01T03:05:05.021Z,102643.44
2022-12-01T03:05:36.631Z,102642.47
2022-12-01T03:06:15.982Z,102639.13
2022-12-01T03:07:05.879Z,102635.78
2022-12-01T03:08:14.619Z,102643.44
2022-12-01T03:09:27.407Z,102639.94
2022-12-01T03:10:18.336Z,102642.72
2022-12-01T03:10:57.810Z,102640.50
2022-12-01T03:11:49.008Z,102644.09
2022-12-01T03:12:32.711Z,102646.59
2022-12-01T03:13:31.340Z,102643.53
2022-12-01T03:14:26.759Z,102649.38
2022-12-01T03:15:03.548Z,102648.28
2022-12-01T03:15:47.290Z,102649.94
2022-12-01T03:16:18.811Z,102645.50
2022-12-01T03:16:52.346Z,102643.84
2022-12-01T03:17:53.858Z,102647.16
2022-12-01T03:18:28.292Z,102648.97
2022-12-01T03:19:11.453Z,102648.84
2022-12-01T03:19:48.621Z,102641.06
2022-12-01T03:20:30.826Z,102644.66
2022-12-01T03:21:10.472Z,102644.41
2022-12-01T03:21:46.603Z,102638.56
2022-12-01T03:22:28.563Z,102641.63
2022-12-01T03:23:18.736Z,102633.13
2022-12-01T03:23:56.740Z,102645.22
2022-12-01T03:24:31.687Z,102640.78
2022-12-01T03:25:04.007Z,102639.38
2022-12-01T03:25:37.305Z,102636.63
2022-12-01T03:26:11.175Z,102642.69
2022-12-01T03:26:46.345Z,102637.69
2022-12-01T03:27:22.489Z,102636.13
2022-12-01T03:28:20.192Z,102638.78
2022-12-01T03:29:06.538Z,102645.72
2022-12-01T03:29:44.268Z,102637.78
2022-12-01T03:30:16.585Z,102638.78
2022-12-01T03:30:48.721Z,102638.06
2022-12-01T03:31:26.065Z,102637.63
2022-12-01T03:32:05.767Z,102638.47
2022-12-01T03:32:42.397Z,102636.94
2022-12-01T03:33:22.565Z,102636.81
2022-12-01T03:34:07.591Z,102634.28
2022-12-01T03:34:51.740Z,102636.81
2022-12-01T03:35:27.166Z,102634.88
2022-12-01T03:36:03.603Z,102633.31
2022-12-01T03:36:43.002Z,102637.63
2022-12-01T03:37:20.601Z,102640.13
2022-12-01T03:37:57.559Z,102637.38
2022-12-01T03:38:30.580Z,102638.06
2022-12-01T03:39:06.806Z,102641.53
2022-12-01T03:39:39.957Z,102636.88
2022-12-01T03:40:17.724Z,102633.81
2022-12-01T03:40:51.264Z,102634.78
2022-12-01T03:41:26.421Z,102641.03
2022-12-01T03:42:01.825Z,102638.25
2022-12-01T03:42:37.567Z,102637.44
2022-12-01T03:43:16.164Z,102638.25
2022-12-01T03:43:52.803Z,102637.28
2022-12-01T03:44:33.134Z,102632.97
2022-12-01T03:45:08.512Z,102636.59
2022-12-01T03:46:01.511Z,102637.44
2022-12-01T03:46:41.343Z,102635.50
2022-12-01T03:47:16.101Z,102634.66
2022-12-01T03:47:47.920Z,102631.88
2022-12-01T03:48:19.391Z,102631.59
2022-12-01T03:48:52.909Z,102633.41
2022-12-01T03:49:25.698Z,102631.59
2022-12-01T03:50:00.236Z,102636.63
2022-12-01T03:50:46.996Z,102636.63
2022-12-01T03:51:21.080Z,102630.50
2022-12-01T03:52:14.230Z,102631.47
2022-12-01T03:53:08.873Z,102640.22
2022-12-01T03:54:00.669Z,102634.81
2022-12-01T03:54:55.674Z,102632.72
2022-12-01T03:55:32.237Z,102637.31
2022-12-01T03:56:05.887Z,102640.78
2022-12-01T03:56:43.280Z,102634.66
2022-12-01T03:57:18.937Z,102630.22
2022-12-01T03:58:14.505Z,102634.94
2022-12-01T03:58:47.456Z,102642.88
2022-12-01T03:59:20.692Z,102642.72
2022-12-01T03:59:52.605Z,102640.78
2022-12-01T04:00:24.466Z,102640.09
2022-12-01T04:00:57.617Z,102639.25
2022-12-01T04:01:33.642Z,102643.00
2022-12-01T04:02:08.477Z,102645.50
2022-12-01T04:02:40.875Z,102638.69
2022-12-01T04:03:18.110Z,102639.38
2022-12-01T04:03:49.660Z,102643.69
2022-12-01T04:04:21.291Z,102639.38
2022-12-01T04:04:52.891Z,102648.00
2022-12-01T04:05:25.601Z,102641.06
2022-12-01T04:05:58.016Z,102648.00
2022-12-01T04:06:29.746Z,102636.63
2022-12-01T04:07:01.232Z,102637.72
2022-12-01T04:07:32.928Z,102638.00
2022-12-01T04:08:04.633Z,102640.63
2022-12-01T04:08:37.516Z,102636.31
2022-12-01T04:09:09.368Z,102642.44
2022-12-01T04:09:41.780Z,102640.50
2022-12-01T04:10:13.233Z,102639.66
2022-12-01T04:10:44.944Z,102640.50
2022-12-01T04:11:35.241Z,102650.22
2022-12-01T04:12:25.882Z,102640.50
2022-12-01T04:12:59.109Z,102641.59
2022-12-01T04:13:30.584Z,102647.72
2022-12-01T04:14:02.110Z,102634.66
2022-12-01T04:14:33.615Z,102644.50
2022-12-01T04:15:11.122Z,102644.50
2022-12-01T04:15:43.277Z,102642.69
2022-12-01T04:16:14.816Z,102645.47
2022-12-01T04:16:46.346Z,102644.50
2022-12-01T04:17:17.822Z,102642.56
2022-12-01T04:17:49.278Z,102642.69
2022-12-01T04:18:21.547Z,102648.56
2022-12-01T04:18:53.029Z,102638.25
2022-12-01T04:19:24.872Z,102646.19
2022-12-01T04:19:56.650Z,102639.22
2022-12-01T04:20:28.113Z,102641.88
2022-12-01T04:20:59.602Z,102647.84
2022-12-01T04:21:31.099Z,102645.22
2022-12-01T04:22:03.433Z,102639.94
2022-12-01T04:22:34.902Z,102635.50
2022-12-01T04:23:06.353Z,102640.75
2022-12-01T04:23:56.380Z,102644.38
2022-12-01T04:24:28.036Z,102641.72
2022-12-01T04:24:59.798Z,102639.94
2022-12-01T04:25:31.224Z,102644.25
2022-12-01T04:26:04.331Z,102640.63
2022-12-01T04:26:37.296Z,102646.88
2022-12-01T04:27:08.959Z,102642.56
2022-12-01T04:27:40.496Z,102648.56
2022-12-01T04:28:11.949Z,102647.56
2022-12-01T04:28:43.380Z,102651.88
2022-12-01T04:29:15.025Z,102643.28
2022-12-01T04:29:46.793Z,102644.94
2022-12-01T04:30:18.692Z,102647.56
2022-12-01T04:30:50.193Z,102647.56
2022-12-01T04:31:21.998Z,102646.88
2022-12-01T04:31:53.623Z,102650.50
2022-12-01T04:32:25.297Z,102641.31
2022-12-01T04:32:57.605Z,102641.31
2022-12-01T04:33:29.520Z,102643.97
2022-12-01T04:34:01.364Z,102643.00
2022-12-01T04:34:32.885Z,102643.00
2022-12-01T04:35:04.675Z,102638.81
2022-12-01T04:35:36.118Z,102643.00
2022-12-01T04:36:08.145Z,102642.03
2022-12-01T04:36:39.644Z,102634.94
2022-12-01T04:37:12.151Z,102642.88
2022-12-01T04:37:43.729Z,102632.44
2022-12-01T04:38:15.162Z,102637.59
2022-12-01T04:38:46.661Z,102634.94
2022-12-01T04:39:18.273Z,102641.06
2022-12-01T04:39:50.056Z,102634.81
2022-12-01T04:40:21.703Z,102636.63
2022-12-01T04:40:53.249Z,102636.75
2022-12-01T04:41:24.720Z,102643.00
2022-12-01T04:41:56.389Z,102638.41
2022-12-01T04:42:27.879Z,102641.06
2022-12-01T04:42:59.415Z,102636.63
2022-12-01T04:43:30.854Z,102642.72
2022-12-01T04:44:02.419Z,102634.81
2022-12-01T04:44:35.284Z,102638.16
2022-12-01T04:45:07.442Z,102640.78
2022-12-01T04:45:38.936Z,102632.16
2022-12-01T04:46:10.869Z,102639.13
2022-12-01T04:46:42.555Z,102645.22
2022-12-01T04:47:14.053Z,102643.56
2022-12-01T04:47:45.477Z,102637.44
2022-12-01T04:48:17.033Z,102632.16
2022-12-01T04:48:48.540Z,102643.00
2022-12-01T04:49:21.586Z,102636.03
2022-12-01T04:49:53.285Z,102641.59
2022-12-01T04:50:24.750Z,102640.63
2022-12-01T04:50:56.311Z,102632.00
2022-12-01T04:51:27.745Z,102637.28
2022-12-01T04:51:59.325Z,102634.66
2022-12-01T04:52:35.012Z,102634.78
2022-12-01T04:53:07.022Z,102632.00
2022-12-01T04:53:38.749Z,102639.94
2022-12-01T04:54:10.224Z,102635.63
2022-12-01T04:54:41.730Z,102635.88
2022-12-01T04:55:15.363Z,102633.25
2022-12-01T04:55:46.989Z,102630.63
2022-12-01T04:56:18.532Z,102630.75
2022-12-01T04:56:50.025Z,102628.22
2022-12-01T04:57:21.469Z,102635.16
2022-12-01T04:57:52.918Z,102633.25
2022-12-01T04:58:24.573Z,102638.53
2022-12-01T04:58:56.100Z,102629.88
2022-12-01T04:59:27.890Z,102632.66
2022-12-01T04:59:59.441Z,102630.84
2022-12-01T05:00:31.007Z,102637.38
2022-12-01T05:01:04.559Z,102635.69
2022-12-01T05:01:36.125Z,102627.34
2022-12-01T05:02:07.699Z,102633.59
2022-12-01T05:02:43.227Z,102628.59
2022-12-01T05:03:15.300Z,102632.19
2022-12-01T05:03:51.010Z,102629.97
2022-12-01T05:04:22.638Z,102632.72
2022-12-01T05:04:54.081Z,102631.75
2022-12-01T05:05:25.931Z,102632.47
2022-12-01T05:06:07.800Z,102631.63
2022-12-01T05:06:39.750Z,102631.63
2022-12-01T05:07:11.191Z,102628.16
2022-12-01T05:07:42.819Z,102628.41
2022-12-01T05:08:14.329Z,102637.31
2022-12-01T05:08:46.359Z,102647.03
2022-12-01T05:09:18.094Z,102645.09
2022-12-01T05:09:49.876Z,102634.53
2022-12-01T05:10:22.034Z,102636.19
2022-12-01T05:10:55.900Z,102638.00
2022-12-01T05:11:29.008Z,102633.44
2022-12-01T05:12:00.813Z,102631.50
2022-12-01T05:12:32.484Z,102635.09
2022-12-01T05:13:05.345Z,102628.84
2022-12-01T05:13:39.506Z,102632.47
2022-12-01T05:14:10.988Z,102626.22
2022-12-01T05:14:42.468Z,102621.06
2022-12-01T05:15:13.968Z,102623.72
2022-12-01T05:15:45.436Z,102633.44
2022-12-01T05:16:19.589Z,102623.97
2022-12-01T05:16:51.198Z,102632.03
2022-12-01T05:17:22.725Z,102626.75
2022-12-01T05:17:54.202Z,102634.66
2022-12-01T05:18:25.669Z,102639.94
2022-12-01T05:19:17.818Z,102635.50
2022-12-01T05:20:07.869Z,102650.50
2022-12-01T05:20:57.477Z,102641.63
2022-12-01T05:21:28.935Z,102642.44
2022-12-01T05:22:00.379Z,102644.25
2022-12-01T05:23:03.712Z,102651.19
2022-12-01T05:23:24.224Z,102643.16
2022-12-01T05:23:55.721Z,102649.53
2022-12-01T05:24:27.302Z,102644.25
2022-12-01T05:24:59.019Z,102646.19
2022-12-01T05:25:30.825Z,102648.00
2022-12-01T05:26:04.541Z,102645.59
2022-12-01T05:26:36.477Z,102646.41
2022-12-01T05:27:07.932Z,102648.09
2022-12-01T05:27:39.415Z,102652.53
2022-12-01T05:28:10.942Z,102646.56
2022-12-01T05:28:42.460Z,102647.66
2022-12-01T05:29:14.287Z,102653.63
2022-12-01T05:29:45.795Z,102648.34
2022-12-01T05:30:17.404Z,102644.75
2022-12-01T05:30:50.006Z,102648.22
2022-12-01T05:31:21.512Z,102644.75
2022-12-01T05:31:53.057Z,102644.75
2022-12-01T05:32:24.656Z,102652.78
2022-12-01T05:32:56.113Z,102646.69
2022-12-01T05:33:28.483Z,102645.00
2022-12-01T05:34:00.225Z,102648.34
2022-12-01T05:34:31.677Z,102637.81
2022-12-01T05:35:03.359Z,102638.06
2022-12-01T05:35:34.870Z,102642.50
2022-12-01T05:36:06.712Z,102652.22
2022-12-01T05:36:38.186Z,102646.94
2022-12-01T05:37:09.813Z,102645.28
2022-12-01T05:37:41.302Z,102646.25
2022-12-01T05:38:12.827Z,102655.84
2022-12-01T05:38:44.279Z,102646.13
2022-12-01T05:39:15.756Z,102647.91
2022-12-01T05:39:47.452Z,102652.22
2022-12-01T05:40:19.256Z,102659.19
2022-12-01T05:40:55.209Z,102650.28
2022-12-01T05:41:26.651Z,102655.56
2022-12-01T05:41:58.176Z,102647.66
2022-12-01T05:42:29.658Z,102649.19
2022-12-01T05:43:01.194Z,102644.75
2022-12-01T05:43:32.742Z,102646.41
2022-12-01T05:44:04.436Z,102653.13
2022-12-01T05:44:35.986Z,102643.41
2022-12-01T05:45:07.849Z,102647.59
2022-12-01T05:45:39.304Z,102649.25
2022-12-01T05:46:11.184Z,102646.63
2022-12-01T05:46:42.748Z,102648.28
2022-12-01T05:47:14.230Z,102649.25
2022-12-01T05:47:45.676Z,102647.59
2022-12-01T05:48:17.930Z,102647.59
2022-12-01T05:48:49.401Z,102638.97
2022-12-01T05:49:20.928Z,102646.75
2022-12-01T05:49:52.424Z,102648.44
2022-12-01T05:50:24.924Z,102646.75
2022-12-01T05:50:56.518Z,102645.91
2022-12-01T05:51:28.093Z,102647.59
2022-12-01T05:51:59.535Z,102637.03
2022-12-01T05:52:34.148Z,102652.88
2022-12-01T05:53:06.317Z,102646.63
2022-12-01T05:53:37.914Z,102644.69
2022-12-01T05:54:09.538Z,102647.31
2022-12-01T05:54:41.106Z,102648.16
2022-12-01T05:55:12.701Z,102645.38
2022-12-01T05:55:44.562Z,102652.59
2022-12-01T05:56:16.071Z,102647.06
2022-12-01T05:56:47.534Z,102657.47
2022-12-01T05:57:19.109Z,102651.38
2022-12-01T05:57:50.545Z,102645.97
2022-12-01T05:58:22.497Z,102650.13
2022-12-01T05:58:54.101Z,102651.81
2022-12-01T05:59:25.684Z,102646.53
2022-12-01T05:59:57.298Z,102656.09
2022-12-01T06:00:28.924Z,102651.81
2022-12-01T06:01:00.499Z,102654.31
2022-12-01T06:01:32.078Z,102649.88
2022-12-01T06:02:03.706Z,102653.34
2022-12-01T06:02:35.189Z,102655.13
2022-12-01T06:03:06.695Z,102650.56
2022-12-01T06:03:38.205Z,102654.88
2022-12-01T06:04:09.756Z,102657.50
2022-12-01T06:04:41.252Z,102653.91
2022-12-01T06:05:12.738Z,102657.50
2022-12-01T06:05:44.249Z,102654.59
2022-12-01T06:06:15.785Z,102658.47
2022-12-01T06:06:47.301Z,102660.16
2022-12-01T06:07:19.626Z,102663.50
2022-12-01T06:07:51.172Z,102661.81
2022-12-01T06:08:22.643Z,102654.59
2022-12-01T06:08:54.133Z,102660.72
2022-12-01T06:09:25.572Z,102650.28
2022-12-01T06:09:57.070Z,102653.78
2022-12-01T06:10:28.546Z,102655.44
2022-12-01T06:11:00.362Z,102653.78
2022-12-01T06:11:31.915Z,102660.72
2022-12-01T06:12:03.505Z,102653.78
2022-12-01T06:12:35.131Z,102660.16
2022-12-01T06:13:06.609Z,102657.38
2022-12-01T06:13:38.286Z,102655.44
2022-12-01T06:14:10.169Z,102661.56
2022-12-01T06:14:41.657Z,102659.88
2022-12-01T06:15:14.049Z,102661.56
2022-12-01T06:15:45.501Z,102664.47
2022-12-01T06:16:17.001Z,102662.53
2022-12-01T06:16:48.512Z,102657.25
2022-12-01T06:17:20.133Z,102664.31
2022-12-01T06:17:51.634Z,102661.56
2022-12-01T06:18:24.013Z,102665.16
2022-12-01T06:18:55.465Z,102657.13
2022-12-01T06:19:26.925Z,102660.63
2022-12-01T06:19:58.464Z,102658.91
2022-12-01T06:20:29.908Z,102656.28
2022-12-01T06:21:01.879Z,102659.88
2022-12-01T06:21:33.356Z,102658.22
2022-12-01T06:22:04.898Z,102658.47
2022-12-01T06:22:36.621Z,102667.81
2022-12-01T06:23:08.075Z,102661.81
2022-12-01T06:23:39.508Z,102664.19
2022-12-01T06:24:11.485Z,102658.06
2022-12-01T06:24:42.963Z,102654.59
2022-12-01T06:25:14.426Z,102666.13
2022-12-01T06:25:45.860Z,102659.19
2022-12-01T06:26:17.328Z,102660.97
2022-12-01T06:26:48.800Z,102670.19
2022-12-01T06:27:20.348Z,102654.59
2022-12-01T06:27:56.398Z,102664.31
2022-12-01T06:28:27.901Z,102663.50
2022-12-01T06:28:59.362Z,102662.53
2022-12-01T06:29:30.971Z,102662.28
2022-12-01T06:30:03.684Z,102670.19
2022-12-01T06:30:35.135Z,102673.53
2022-12-01T06:31:06.704Z,102670.78
2022-12-01T06:31:38.176Z,102673.53
2022-12-01T06:32:10.026Z,102672.25
2022-12-01T06:32:41.552Z,102672.97
2022-12-01T06:33:13.036Z,102674.50
2022-12-01T06:33:44.525Z,102675.06
2022-12-01T06:34:15.992Z,102663.25
2022-12-01T06:34:47.465Z,102666.47
2022-12-01T06:35:19.008Z,102664.94
2022-12-01T06:36:00.306Z,102673.53
2022-12-01T06:36:32.293Z,102668.00
2022-12-01T06:37:03.848Z,102673.28
2022-12-01T06:37:35.399Z,102671.34